Time;durP1;ratioP1;P1;durP2;ratioP2;P2;SDS_P1;SDS_P2;PMS_P1;PMS_P2;Temp;Humidity;BMP_temperature;BMP_pressure;BME280_temperature;BME280_humidity;BME280_pressure;Samples;Min_cycle;Max_cycle;Signal;HPM_P1;HPM_P2
2022/12/22 03:27:44;;;;;;;11.32;8.85;;;;;;;9.33;100.00;100147.84;5093578;28;20171;-69
2022/12/22 03:30:09;;;;;;;12.07;8.75;;;;;;;9.33;100.00;100150.50;5093345;28;20112;-68
2022/12/22 03:32:34;;;;;;;11.77;8.85;;;;;;;9.32;100.00;100151.38;5093342;28;20028;-68
2022/12/22 03:35:00;;;;;;;11.15;8.55;;;;;;;9.32;100.00;100146.09;5093288;28;20024;-68
2022/12/22 03:37:25;;;;;;;10.85;8.73;;;;;;;9.31;100.00;100136.44;5075429;28;20024;-68
2022/12/22 03:39:51;;;;;;;9.90;8.45;;;;;;;9.32;100.00;100137.31;5093128;28;20032;-69
2022/12/22 03:47:44;;;;;;;9.93;8.10;;;;;;;9.31;100.00;100115.34;5093414;28;20042;-68
2022/12/22 03:50:09;;;;;;;9.38;8.32;;;;;;;9.35;100.00;100127.66;5092930;28;20024;-68
2022/12/22 03:52:35;;;;;;;10.05;7.78;;;;;;;9.36;100.00;100125.91;5075336;28;20032;-68
2022/12/22 03:55:00;;;;;;;8.50;7.10;;;;;;;9.37;100.00;100123.25;5092918;28;20651;-68
2022/12/22 03:57:25;;;;;;;10.15;6.68;;;;;;;9.34;100.00;100125.91;5092864;28;20028;-68
2022/12/22 03:59:51;;;;;;;8.90;7.68;;;;;;;9.35;100.00;100116.25;5093170;28;20153;-68
2022/12/22 04:02:16;;;;;;;7.05;6.35;;;;;;;9.36;100.00;100108.31;5074972;28;20389;-68
2022/12/22 04:04:41;;;;;;;12.32;6.47;;;;;;;9.39;100.00;100118.91;5093146;28;20029;-67
2022/12/22 04:07:07;;;;;;;53.63;6.70;;;;;;;9.37;100.00;100104.81;5092904;28;20062;-68
2022/12/22 04:09:32;;;;;;;11.85;5.85;;;;;;;9.36;100.00;100113.59;5092790;28;20056;-68
2022/12/22 04:14:41;;;;;;;8.88;7.18;;;;;;;9.36;100.00;100096.91;5093319;28;20451;-67
2022/12/22 04:17:08;;;;;;;9.50;7.32;;;;;;;9.37;100.00;100106.56;5092886;28;20103;-68
2022/12/22 04:19:34;;;;;;;8.82;7.72;;;;;;;9.39;100.00;100100.44;5092810;28;20408;-68
2022/12/22 04:22:00;;;;;;;9.48;8.07;;;;;;;9.40;100.00;100103.94;5095506;28;20032;-68
2022/12/22 04:24:25;;;;;;;12.05;6.32;;;;;;;9.37;100.00;100099.53;5096602;28;20036;-68
2022/12/22 04:26:50;;;;;;;33.78;5.55;;;;;;;9.35;100.00;100101.31;5096835;28;20028;-68
2022/12/22 04:29:16;;;;;;;10.15;6.95;;;;;;;9.33;100.00;100099.53;5096854;28;20384;-68
2022/12/22 04:31:41;;;;;;;15.93;6.43;;;;;;;9.31;100.00;100110.06;5096779;28;20558;-68
2022/12/22 04:34:07;;;;;;;7.53;6.13;;;;;;;9.30;100.00;100113.59;5096618;28;20111;-68
2022/12/22 04:36:32;;;;;;;6.78;5.35;;;;;;;9.31;100.00;100111.84;5096718;28;20054;-67
2022/12/22 04:38:58;;;;;;;8.98;7.32;;;;;;;9.37;100.00;100119.75;5096288;28;20046;-68
2022/12/22 04:41:23;;;;;;;8.82;7.13;;;;;;;9.39;100.00;100118.03;5096557;28;20024;-68
2022/12/22 04:43:48;;;;;;;7.00;6.07;;;;;;;9.40;100.00;100123.28;5096645;28;20442;-67
2022/12/22 04:46:14;;;;;;;8.90;7.22;;;;;;;9.43;100.00;100130.34;5096579;28;20031;-67
2022/12/22 04:48:39;;;;;;;7.88;6.45;;;;;;;9.46;100.00;100119.78;5096493;28;20026;-68
2022/12/22 04:51:05;;;;;;;7.90;6.95;;;;;;;9.46;100.00;100125.06;5077677;28;20118;-69
2022/12/22 04:53:30;;;;;;;8.75;7.07;;;;;;;9.47;100.00;100129.47;5076047;28;20029;-68
2022/12/22 04:56:01;;;;;;;9.38;7.57;;;;;;;9.45;100.00;100137.38;5057912;28;20040;-68
2022/12/22 04:58:27;;;;;;;8.80;7.45;;;;;;;9.46;100.00;100123.31;5076069;28;20062;-68
2022/12/22 05:00:53;;;;;;;7.32;5.93;;;;;;;9.48;100.00;100123.31;5076012;28;20020;-68
2022/12/22 05:03:19;;;;;;;11.60;7.85;;;;;;;9.47;100.00;100119.81;5057976;28;20027;-67
2022/12/22 05:05:44;;;;;;;12.55;7.57;;;;;;;9.49;100.00;100109.25;5075928;28;20086;-68
2022/12/22 05:08:10;;;;;;;10.60;7.68;;;;;;;9.48;100.00;100108.38;5075523;28;20039;-68
2022/12/22 05:10:35;;;;;;;14.75;7.68;;;;;;;9.46;100.00;100111.88;5057630;28;20032;-68
2022/12/22 05:13:01;;;;;;;15.88;7.80;;;;;;;9.40;100.00;100112.75;5075755;28;20027;-67
2022/12/22 05:15:31;;;;;;;7.80;6.35;;;;;;;9.38;100.00;100117.13;5075646;28;20040;-68
2022/12/22 05:17:58;;;;;;;9.38;7.57;;;;;;;9.36;100.00;100112.72;5057846;28;20058;-67
2022/12/22 05:20:24;;;;;;;15.38;7.88;;;;;;;9.37;100.00;100117.13;5075636;28;20059;-68
2022/12/22 05:22:49;;;;;;;10.43;8.35;;;;;;;9.38;100.00;100114.50;5075350;28;20029;-68
2022/12/22 05:25:15;;;;;;;9.20;7.32;;;;;;;9.37;100.00;100120.63;5057649;28;20040;-68
2022/12/22 05:27:42;;;;;;;10.02;7.60;;;;;;;9.38;100.00;100124.13;5075539;28;20031;-67
2022/12/22 05:30:09;;;;;;;12.23;7.85;;;;;;;9.34;100.00;100125.03;5075564;28;20028;-68
2022/12/22 05:32:34;;;;;;;10.35;8.43;;;;;;;9.28;100.00;100126.75;5074752;28;20075;-67
2022/12/22 05:35:00;;;;;;;10.45;7.97;;;;;;;9.33;100.00;100136.44;5075474;28;20032;-68
2022/12/22 05:37:26;;;;;;;14.27;7.47;;;;;;;9.30;100.00;100139.06;5075118;28;20107;-68
2022/12/22 05:39:51;;;;;;;12.55;7.93;;;;;;;9.32;100.00;100140.81;5075082;28;20116;-68
2022/12/22 05:42:34;;;;;;;12.38;8.30;;;;;;;9.32;100.00;100145.22;5075279;28;20047;-67
2022/12/22 05:45:02;;;;;;;12.25;7.80;;;;;;;9.31;100.00;100146.09;5060093;28;20053;-68
2022/12/22 05:47:27;;;;;;;12.68;8.13;;;;;;;9.30;100.00;100142.59;5075071;28;20501;-68
2022/12/22 05:49:53;;;;;;;11.48;8.23;;;;;;;9.30;100.00;100145.22;5075004;28;20024;-67
2022/12/22 05:52:18;;;;;;;11.00;8.30;;;;;;;9.30;100.00;100152.25;5074746;28;20095;-68
2022/12/22 05:54:43;;;;;;;10.57;7.90;;;;;;;9.30;100.00;100152.25;5074836;28;20095;-68
2022/12/22 05:57:09;;;;;;;14.27;8.70;;;;;;;9.29;100.00;100161.91;5074820;28;20103;-68
2022/12/22 05:59:34;;;;;;;12.20;8.98;;;;;;;9.32;100.00;100161.91;5074941;28;20025;-67
2022/12/22 06:01:59;;;;;;;13.32;9.27;;;;;;;9.32;100.00;100174.22;5074864;28;20481;-68
2022/12/22 06:04:25;;;;;;;17.13;9.98;;;;;;;9.29;100.00;100172.44;5074802;28;20028;-67
2022/12/22 06:06:50;;;;;;;15.00;9.73;;;;;;;9.32;100.00;100190.03;5056630;28;20655;-68
2022/12/22 06:09:15;;;;;;;19.23;10.35;;;;;;;9.31;100.00;100190.91;5074527;28;20040;-68
2022/12/22 06:11:41;;;;;;;15.80;9.82;;;;;;;9.33;100.00;100197.94;5074667;28;20056;-68
2022/12/22 06:14:06;;;;;;;13.63;9.60;;;;;;;9.33;100.00;100194.44;5074530;28;20066;-67
2022/12/22 06:16:31;;;;;;;15.05;10.00;;;;;;;9.33;100.00;100195.31;5074570;28;20108;-68
2022/12/22 06:18:57;;;;;;;13.25;9.25;;;;;;;9.34;100.00;100198.84;5074522;28;20032;-70
2022/12/22 06:21:22;;;;;;;16.60;10.43;;;;;;;9.33;100.00;100205.84;5074302;28;20060;-68
2022/12/22 06:23:48;;;;;;;13.10;9.40;;;;;;;9.36;100.00;100210.28;5074415;28;20466;-68
2022/12/22 06:26:13;;;;;;;16.02;11.32;;;;;;;9.34;100.00;100214.69;5074376;28;20067;-68
2022/12/22 06:28:38;;;;;;;16.50;11.35;;;;;;;9.34;100.00;100220.81;5074303;28;20035;-68
2022/12/22 06:31:04;;;;;;;16.95;12.40;;;;;;;9.35;100.00;100219.06;5074308;28;20035;-68
2022/12/22 06:33:29;;;;;;;17.42;12.30;;;;;;;9.40;100.00;100227.88;5074203;28;20039;-68
2022/12/22 06:35:55;;;;;;;16.98;11.80;;;;;;;9.39;100.00;100232.28;5074025;28;20036;-68
2022/12/22 06:38:20;;;;;;;13.93;9.55;;;;;;;9.39;100.00;100239.31;5073824;28;20380;-68
2022/12/22 06:40:46;;;;;;;18.17;12.73;;;;;;;9.39;100.00;100240.19;5073910;28;20056;-66
2022/12/22 06:43:11;;;;;;;20.25;13.07;;;;;;;9.37;100.00;100248.94;5073260;28;20037;-68
2022/12/22 06:45:40;;;;;;;22.02;14.10;;;;;;;9.37;100.00;100251.59;5073603;28;20086;-66
2022/12/22 06:48:06;;;;;;;23.60;14.70;;;;;;;9.37;100.00;100251.59;5073800;28;20566;-67
2022/12/22 06:50:32;;;;;;;26.92;16.27;;;;;;;9.36;100.00;100252.47;5073569;28;20043;-66
2022/12/22 06:52:57;;;;;;;26.02;14.98;;;;;;;9.34;100.00;100241.03;5073811;28;20028;-68
2022/12/22 06:55:23;;;;;;;27.85;16.08;;;;;;;9.33;100.00;100255.06;5073567;28;20024;-66
2022/12/22 06:57:48;;;;;;;29.10;16.33;;;;;;;9.32;100.00;100263.88;5073679;28;20036;-68
2022/12/22 07:00:14;;;;;;;29.20;16.33;;;;;;;9.34;100.00;100277.97;5073330;28;20066;-66
2022/12/22 07:02:39;;;;;;;28.42;16.50;;;;;;;9.32;100.00;100282.31;5073543;28;20025;-67
2022/12/22 07:05:05;;;;;;;29.17;17.85;;;;;;;9.29;100.00;100291.06;5073346;28;20055;-67
2022/12/22 07:07:30;;;;;;;29.98;16.77;;;;;;;9.27;100.00;100283.16;5055542;28;20115;-67
2022/12/22 07:09:56;;;;;;;30.55;16.58;;;;;;;9.28;100.00;100298.09;5073303;28;20086;-68
2022/12/22 07:12:22;;;;;;;33.97;17.65;;;;;;;9.27;100.00;100301.63;5073265;28;20523;-68
2022/12/22 07:14:48;;;;;;;32.70;17.02;;;;;;;9.25;100.00;100307.78;5073063;28;20024;-67
2022/12/22 07:17:13;;;;;;;31.05;17.90;;;;;;;9.25;100.00;100315.69;5073291;28;20032;-68
2022/12/22 07:19:39;;;;;;;30.90;17.48;;;;;;;9.26;100.00;100323.59;5073114;28;20016;-68
2022/12/22 07:22:04;;;;;;;32.10;17.38;;;;;;;9.25;100.00;100323.59;5073368;28;20029;-68
2022/12/22 07:24:29;;;;;;;28.50;15.35;;;;;;;9.26;100.00;100314.81;5073251;28;20039;-68
2022/12/22 07:26:55;;;;;;;36.75;18.95;;;;;;;9.26;100.00;100312.16;5073028;28;20103;-68
2022/12/22 07:29:20;;;;;;;35.83;18.42;;;;;;;9.28;100.00;100310.41;5073474;28;20036;-68
2022/12/22 07:31:46;;;;;;;36.50;18.50;;;;;;;9.26;100.00;100318.31;5073037;28;20478;-67
2022/12/22 07:34:11;;;;;;;33.92;18.15;;;;;;;9.23;100.00;100315.66;5072690;28;20029;-68
2022/12/22 07:36:37;;;;;;;32.85;17.77;;;;;;;9.22;100.00;100315.66;5073293;28;20082;-68
2022/12/22 07:39:02;;;;;;;34.60;18.17;;;;;;;9.23;100.00;100314.78;5072891;28;20024;-68
2022/12/22 07:44:12;;;;;;;38.13;17.67;;;;;;;9.20;100.00;100323.53;5073477;28;20500;-67
2022/12/22 07:46:38;;;;;;;33.60;17.67;;;;;;;9.20;100.00;100335.81;5073108;28;20028;-68
2022/12/22 07:51:49;;;;;;;33.92;17.77;;;;;;;9.22;100.00;100339.38;5072909;28;20056;-67
2022/12/22 07:54:15;;;;;;;37.63;17.40;;;;;;;9.22;100.00;100345.53;5072842;28;20025;-67
2022/12/22 07:56:41;;;;;;;36.55;18.65;;;;;;;9.20;100.00;100349.88;5072797;28;20024;-67
2022/12/22 07:59:07;;;;;;;37.03;18.88;;;;;;;9.22;100.00;100357.84;5072933;28;20081;-68
2022/12/22 08:01:32;;;;;;;37.15;18.50;;;;;;;9.22;100.00;100366.63;5072753;28;20537;-68
2022/12/22 08:03:58;;;;;;;33.65;16.40;;;;;;;9.20;100.00;100372.72;5072812;28;20028;-67
2022/12/22 08:06:23;;;;;;;39.83;17.85;;;;;;;9.23;100.00;100388.59;5072784;28;20021;-67
2022/12/22 08:08:49;;;;;;;37.05;18.42;;;;;;;9.21;100.00;100404.41;5072663;28;20029;-68
2022/12/22 08:11:15;;;;;;;34.70;19.40;;;;;;;9.15;100.00;100412.22;5072901;28;20432;-67
2022/12/22 08:13:42;;;;;;;28.73;15.65;;;;;;;9.09;100.00;100412.19;5072839;28;20031;-68
2022/12/22 08:16:11;;;;;;;35.00;17.77;;;;;;;9.03;100.00;100420.91;5072460;28;20056;-68
2022/12/22 08:18:37;;;;;;;34.92;17.90;;;;;;;9.03;100.00;100423.53;5072770;28;20052;-67
2022/12/22 08:21:04;;;;;;;36.65;18.00;;;;;;;9.02;100.00;100419.13;5072733;28;20078;-67
2022/12/22 08:23:30;;;;;;;34.40;17.85;;;;;;;9.03;100.00;100418.25;5072634;28;20031;-67
2022/12/22 08:26:16;;;;;;;34.70;17.38;;;;;;;9.09;100.00;100424.50;5072577;28;20029;-67
2022/12/22 08:29:07;;;;;;;34.42;16.48;;;;;;;9.12;100.00;100414.88;5071691;28;20083;-68
2022/12/22 08:31:33;;;;;;;32.70;15.98;;;;;;;9.17;100.00;100428.97;5072622;28;20075;-67
2022/12/22 08:34:02;;;;;;;31.73;16.05;;;;;;;9.19;100.00;100429.84;5072510;28;20028;-68
2022/12/22 08:36:31;;;;;;;29.42;16.02;;;;;;;9.26;100.00;100431.69;5072490;28;20028;-67
2022/12/22 08:38:57;;;;;;;28.27;14.80;;;;;;;9.28;100.00;100447.50;5072057;28;20029;-68
2022/12/22 08:44:06;;;;;;;29.10;15.73;;;;;;;9.34;100.00;100459.88;5072958;28;20048;-67
2022/12/22 08:46:32;;;;;;;32.15;16.38;;;;;;;9.35;100.00;100480.97;5072422;28;20107;-67
2022/12/22 08:48:57;;;;;;;32.47;16.50;;;;;;;9.35;100.00;100477.47;5072518;28;20086;-68
2022/12/22 08:51:23;;;;;;;33.53;16.08;;;;;;;9.39;100.00;100487.19;5071974;28;20044;-68
2022/12/22 08:53:48;;;;;;;29.45;14.00;;;;;;;9.42;100.00;100492.47;5072479;28;20021;-68
2022/12/22 08:56:13;;;;;;;33.10;16.23;;;;;;;9.42;100.00;100509.19;5072278;28;20089;-68
2022/12/22 08:58:39;;;;;;;33.47;15.55;;;;;;;9.41;100.00;100510.03;5072332;28;20498;-67
2022/12/22 09:01:05;;;;;;;35.80;17.77;;;;;;;9.40;100.00;100513.56;5072289;28;20085;-68
2022/12/22 09:03:30;;;;;;;34.90;16.52;;;;;;;9.38;100.00;100506.47;5071854;28;20036;-68
2022/12/22 09:06:02;;;;;;;32.10;16.85;;;;;;;9.34;100.00;100499.44;5072067;28;20111;-67
2022/12/22 09:08:27;;;;;;;34.63;17.10;;;;;;;9.28;100.00;100503.75;5074941;28;20020;-67
2022/12/22 09:10:53;;;;;;;37.47;17.40;;;;;;;9.24;100.00;100523.03;5076154;28;20374;-67
2022/12/22 09:13:18;;;;;;;33.45;16.92;;;;;;;9.24;100.00;100537.97;5075595;28;20031;-68
2022/12/22 09:15:43;;;;;;;36.85;17.08;;;;;;;9.22;100.00;100529.19;5075798;28;20482;-67
2022/12/22 09:18:09;;;;;;;37.80;16.52;;;;;;;9.19;100.00;100524.75;5057969;28;20120;-67
2022/12/22 09:20:34;;;;;;;34.88;17.63;;;;;;;9.19;100.00;100526.50;5075442;28;20060;-67
2022/12/22 09:22:59;;;;;;;38.83;17.70;;;;;;;9.14;100.00;100526.47;5075488;28;20103;-68
2022/12/22 09:25:25;;;;;;;33.50;16.38;;;;;;;9.18;100.00;100532.66;5075541;28;20063;-68
2022/12/22 09:27:50;;;;;;;39.05;17.58;;;;;;;9.26;100.00;100539.78;5067103;28;20044;-68
2022/12/22 09:30:16;;;;;;;37.53;17.50;;;;;;;9.44;100.00;100540.84;5075509;28;20036;-65
2022/12/22 09:32:41;;;;;;;38.22;18.30;;;;;;;9.63;100.00;100549.81;5083833;28;20032;-67
2022/12/22 09:35:07;;;;;;;42.50;18.92;;;;;;;9.91;100.00;100549.22;5077256;28;20024;-67
2022/12/22 09:37:32;;;;;;;36.60;17.65;;;;;;;10.16;100.00;100545.00;5095513;28;20485;-67
2022/12/22 09:39:57;;;;;;;37.22;18.52;;;;;;;10.53;100.00;100556.75;5077350;28;20540;-68
2022/12/22 09:42:23;;;;;;;37.30;18.75;;;;;;;10.92;100.00;100543.72;5095425;28;20111;-68
2022/12/22 09:44:50;;;;;;;33.78;17.80;;;;;;;11.30;98.76;100549.16;5095406;28;20043;-68
2022/12/22 09:47:30;;;;;;;32.80;16.75;;;;;;;11.49;95.09;100553.63;5077678;28;20443;-67
2022/12/22 09:49:56;;;;;;;30.42;16.65;;;;;;;11.61;94.40;100547.50;5095117;28;20024;-67
2022/12/22 09:52:39;;;;;;;35.60;17.25;;;;;;;11.64;94.23;100558.06;5095071;28;20044;-67
2022/12/22 09:55:14;;;;;;;33.72;17.17;;;;;;;11.65;93.96;100564.22;5095079;28;20031;-66
2022/12/22 09:57:40;;;;;;;31.02;16.38;;;;;;;11.47;93.28;100570.38;5095191;28;20060;-67
2022/12/22 10:00:16;;;;;;;29.23;16.13;;;;;;;11.22;93.19;100572.03;5094785;28;20059;-68
2022/12/22 10:03:21;;;;;;;28.30;16.38;;;;;;;10.98;94.46;100573.72;5094829;28;20077;-68
2022/12/22 10:06:09;;;;;;;29.02;16.60;;;;;;;10.81;95.42;100575.41;5095282;28;20469;-68
2022/12/22 10:08:37;;;;;;;30.73;17.10;;;;;;;10.84;95.41;100575.44;5094606;28;20115;-68
2022/12/22 10:11:03;;;;;;;31.23;17.48;;;;;;;10.92;95.28;100573.72;5095064;28;20111;-68
2022/12/22 10:13:28;;;;;;;32.75;18.80;;;;;;;10.99;95.13;100577.25;5076795;28;20521;-68
2022/12/22 10:15:55;;;;;;;29.85;17.05;;;;;;;11.06;95.05;100579.06;5094653;28;20063;-67
2022/12/22 10:18:28;;;;;;;30.33;17.48;;;;;;;11.07;93.54;100580.81;5094673;28;20024;-68
2022/12/22 10:21:12;;;;;;;31.40;17.25;;;;;;;10.98;93.42;100586.94;5094698;28;20482;-68
2022/12/22 10:23:42;;;;;;;31.35;17.13;;;;;;;10.80;93.74;100596.56;5094696;28;20027;-68
2022/12/22 10:26:27;;;;;;;28.65;15.05;;;;;;;10.66;94.04;100586.78;5094555;28;20035;-68
2022/12/22 10:28:59;;;;;;;29.63;15.32;;;;;;;10.51;95.13;100592.84;5076485;28;20060;-67
2022/12/22 10:31:27;;;;;;;23.88;14.07;;;;;;;10.35;94.60;100590.94;5094900;28;20020;-67
2022/12/22 10:33:56;;;;;;;27.70;14.18;;;;;;;10.28;96.18;100591.78;5094597;28;20169;-68
2022/12/22 10:36:26;;;;;;;21.77;12.18;;;;;;;10.22;95.26;100597.84;5094528;28;20028;-68
2022/12/22 10:38:57;;;;;;;21.15;11.85;;;;;;;10.11;94.53;100602.19;5094381;28;20056;-67
2022/12/22 10:41:27;;;;;;;19.88;11.13;;;;;;;10.04;94.67;100603.00;5094228;28;20504;-68
2022/12/22 10:43:59;;;;;;;23.73;11.05;;;;;;;10.00;94.34;100602.06;5094440;28;20027;-67
2022/12/22 10:46:49;;;;;;;24.60;11.13;;;;;;;9.98;94.25;100602.94;5094037;28;20020;-68
2022/12/22 10:49:20;;;;;;;22.55;11.50;;;;;;;9.95;94.08;100602.91;5094256;28;20032;-67
2022/12/22 10:51:50;;;;;;;25.92;11.60;;;;;;;9.96;95.01;100604.66;5093782;28;20521;-67
2022/12/22 10:54:34;;;;;;;20.13;11.00;;;;;;;10.08;94.41;100614.47;5075982;28;20401;-68
2022/12/22 10:57:02;;;;;;;21.85;10.55;;;;;;;10.17;94.52;100607.50;5094105;28;20385;-68
2022/12/22 10:59:28;;;;;;;21.77;10.85;;;;;;;10.33;93.97;100603.28;5075759;28;20028;-68
2022/12/22 11:01:53;;;;;;;21.83;11.68;;;;;;;10.45;92.50;100611.28;5094105;28;20072;-68
2022/12/22 11:04:24;;;;;;;20.63;10.70;;;;;;;10.66;92.65;100614.94;5093921;28;20028;-67
2022/12/22 11:06:52;;;;;;;21.80;10.95;;;;;;;10.84;91.58;100603.63;5094020;28;20027;-68
2022/12/22 11:09:17;;;;;;;25.60;11.43;;;;;;;10.91;91.26;100616.84;5093496;28;20024;-67
2022/12/22 11:11:51;;;;;;;18.40;10.70;;;;;;;10.98;90.51;100616.03;5093762;28;20489;-67
2022/12/22 11:14:41;;;;;;;19.98;11.10;;;;;;;11.02;90.67;100628.38;5075621;28;20032;-68
2022/12/22 11:17:15;;;;;;;20.88;11.00;;;;;;;10.91;90.37;100630.06;5093674;28;20481;-68
2022/12/22 11:19:40;;;;;;;19.52;10.30;;;;;;;10.90;90.49;100630.97;5093658;28;20032;-68
2022/12/22 11:22:31;;;;;;;22.35;10.43;;;;;;;10.92;90.35;100630.97;5073490;28;20036;-68
2022/12/22 11:25:13;;;;;;;16.35;9.30;;;;;;;10.95;89.92;100634.50;5073293;28;20032;-67
2022/12/22 11:28:17;;;;;;;20.70;9.25;;;;;;;11.03;89.37;100629.25;5073621;28;20028;-68
2022/12/22 11:30:42;;;;;;;18.83;8.90;;;;;;;11.01;88.16;100636.31;5028012;28;20044;-68
2022/12/22 11:33:20;;;;;;;22.50;9.85;;;;;;;10.98;88.24;100634.53;5073226;28;20035;-68
2022/12/22 11:36:08;;;;;;;21.90;11.95;;;;;;;10.94;88.56;100634.50;5073157;28;20063;-67
2022/12/22 11:38:40;;;;;;;22.20;13.45;;;;;;;10.89;87.37;100638.88;5073128;28;20043;-68
2022/12/22 11:41:24;;;;;;;24.37;14.23;;;;;;;10.76;88.65;100646.75;5073236;28;20028;-68
2022/12/22 11:44:10;;;;;;;25.08;15.10;;;;;;;10.68;89.18;100650.19;5073031;28;20071;-67
2022/12/22 11:47:13;;;;;;;26.33;15.13;;;;;;;10.62;90.27;100645.78;5072902;28;20032;-67
2022/12/22 11:50:02;;;;;;;27.65;16.23;;;;;;;10.60;89.77;100647.50;5073160;28;20063;-67
2022/12/22 11:52:36;;;;;;;23.85;15.30;;;;;;;10.65;90.81;100645.75;5073022;28;20040;-67
2022/12/22 11:55:19;;;;;;;25.92;15.27;;;;;;;10.71;89.20;100655.53;5073006;28;20109;-68
2022/12/22 11:57:53;;;;;;;27.98;14.77;;;;;;;10.71;89.45;100643.19;5073304;28;20032;-68
2022/12/22 12:00:19;;;;;;;26.00;15.43;;;;;;;10.66;89.68;100649.28;5072948;28;20036;-68
2022/12/22 12:03:22;;;;;;;26.08;15.27;;;;;;;10.70;89.28;100644.03;5072946;28;20032;-68
2022/12/22 12:06:06;;;;;;;25.85;16.25;;;;;;;10.72;89.41;100637.03;5072843;28;20033;-67
2022/12/22 12:08:52;;;;;;;26.00;14.95;;;;;;;10.73;89.54;100640.53;5072719;28;20024;-67
2022/12/22 12:11:23;;;;;;;28.48;14.63;;;;;;;10.67;87.29;100640.50;5072890;28;20039;-67
2022/12/22 12:14:01;;;;;;;21.83;13.88;;;;;;;10.66;87.76;100625.50;5072696;28;20457;-67
2022/12/22 12:16:33;;;;;;;21.10;12.02;;;;;;;10.83;86.37;100621.22;5054887;28;20037;-68
2022/12/22 12:19:32;;;;;;;19.70;11.45;;;;;;;10.94;85.66;100616.88;5072735;28;20024;-67
2022/12/22 12:22:02;;;;;;;17.42;11.18;;;;;;;11.02;85.22;100614.28;5072727;28;20029;-67
2022/12/22 12:25:05;;;;;;;17.52;10.20;;;;;;;11.06;86.02;100610.78;5054821;28;20120;-67
2022/12/22 12:28:05;;;;;;;16.50;10.93;;;;;;;11.00;85.61;100606.31;5059264;28;20072;-67
2022/12/22 12:30:52;;;;;;;18.02;10.43;;;;;;;10.89;84.89;100604.53;5072742;28;20020;-68
2022/12/22 12:33:21;;;;;;;20.33;10.82;;;;;;;10.73;85.50;100595.63;5072569;28;20054;-68
2022/12/22 12:36:14;;;;;;;20.20;11.27;;;;;;;10.71;86.15;100592.97;5072366;28;20029;-68
2022/12/22 12:38:55;;;;;;;25.60;11.43;;;;;;;10.67;86.21;100585.03;5072366;28;20470;-67
2022/12/22 12:41:39;;;;;;;19.13;11.82;;;;;;;10.72;86.58;100593.84;5072602;28;20025;-67
2022/12/22 12:44:09;;;;;;;16.17;10.50;;;;;;;10.64;86.11;100595.56;5076204;28;20040;-68
2022/12/22 12:46:40;;;;;;;18.40;10.82;;;;;;;10.59;86.84;100592.91;5076344;28;20028;-67
2022/12/22 12:49:35;;;;;;;15.93;9.80;;;;;;;10.62;87.65;100584.09;5076088;28;20482;-68
2022/12/22 12:52:03;;;;;;;18.73;10.65;;;;;;;10.52;86.23;100584.03;5038478;28;20110;-68
2022/12/22 12:54:28;;;;;;;18.23;10.38;;;;;;;10.47;87.05;100595.44;5075998;28;20032;-67
2022/12/22 12:57:10;;;;;;;20.98;11.60;;;;;;;10.40;87.63;100590.97;5076034;28;20025;-67
2022/12/22 12:59:38;;;;;;;17.93;11.13;;;;;;;10.39;88.46;100592.75;5075971;28;20545;-67
2022/12/22 13:02:26;;;;;;;19.90;11.05;;;;;;;10.35;88.09;100585.66;5075923;28;20474;-67
2022/12/22 13:05:27;;;;;;;17.95;11.35;;;;;;;10.41;89.02;100592.78;5067652;28;20025;-67
2022/12/22 13:08:08;;;;;;;16.80;10.73;;;;;;;10.49;89.60;100576.09;5062573;28;20040;-67
2022/12/22 13:10:53;;;;;;;20.40;12.07;;;;;;;10.41;87.83;100585.72;5075649;28;20431;-67
2022/12/22 13:13:22;;;;;;;20.42;12.18;;;;;;;10.52;88.91;100578.75;5075930;28;20078;-67
2022/12/22 13:15:59;;;;;;;19.60;11.55;;;;;;;10.70;88.57;100580.59;5075577;28;20060;-67
2022/12/22 13:18:25;;;;;;;19.60;12.55;;;;;;;10.78;87.58;100573.63;5075524;28;20086;-67
2022/12/22 13:20:57;;;;;;;22.73;13.40;;;;;;;10.78;87.58;100583.31;5076006;28;20029;-68
2022/12/22 13:23:27;;;;;;;20.85;13.30;;;;;;;10.75;87.61;100589.47;5075537;28;20052;-67
2022/12/22 13:26:00;;;;;;;25.38;13.48;;;;;;;10.67;87.52;100585.91;5075584;28;20030;-67
2022/12/22 13:28:26;;;;;;;24.00;14.25;;;;;;;10.54;88.09;100586.69;5075516;28;20025;-67
2022/12/22 13:31:05;;;;;;;23.83;14.20;;;;;;;10.43;88.23;100589.25;5075313;28;20031;-67
2022/12/22 13:33:36;;;;;;;22.38;14.35;;;;;;;10.34;88.41;100588.31;5075547;28;20070;-67
2022/12/22 13:36:03;;;;;;;20.55;13.32;;;;;;;10.27;89.09;100596.16;5075236;28;20029;-67
2022/12/22 13:38:33;;;;;;;20.77;12.43;;;;;;;10.20;88.32;100601.38;5075371;28;20074;-67
2022/12/22 13:41:02;;;;;;;16.75;10.95;;;;;;;10.11;86.80;100588.09;5057442;28;20501;-67
2022/12/22 13:43:29;;;;;;;13.63;9.18;;;;;;;10.05;87.32;100578.34;5075144;28;20045;-67
2022/12/22 13:46:01;;;;;;;12.68;8.20;;;;;;;9.98;87.03;100573.91;5075131;28;20024;-67
2022/12/22 13:48:43;;;;;;;12.20;8.50;;;;;;;10.01;87.08;100569.50;5075478;28;20035;-67
2022/12/22 13:51:17;;;;;;;12.27;8.27;;;;;;;9.98;86.81;100563.34;5074990;28;20097;-67
2022/12/22 13:53:48;;;;;;;11.13;8.48;;;;;;;9.95;87.11;100558.91;5074581;28;20021;-67
2022/12/22 13:56:18;;;;;;;15.73;8.27;;;;;;;9.96;87.31;100558.03;5074896;28;20025;-67
2022/12/22 13:58:45;;;;;;;13.60;8.90;;;;;;;9.97;87.41;100558.91;5074882;28;20032;-67
2022/12/22 14:01:11;;;;;;;13.65;9.27;;;;;;;9.95;87.11;100558.91;5075198;28;20024;-68
2022/12/22 14:04:11;;;;;;;14.15;8.70;;;;;;;9.95;87.84;100551.00;5074806;28;20493;-67
2022/12/22 14:06:39;;;;;;;15.25;9.15;;;;;;;9.92;88.24;100544.81;5060843;28;20050;-67
2022/12/22 14:09:19;;;;;;;12.95;9.20;;;;;;;9.95;88.22;100552.75;5074599;28;20029;-67
2022/12/22 14:11:54;;;;;;;13.25;9.18;;;;;;;9.91;88.09;100546.56;5074799;28;20020;-67
2022/12/22 14:14:26;;;;;;;16.63;9.63;;;;;;;9.83;88.30;100539.47;5074759;28;20103;-67
2022/12/22 14:16:54;;;;;;;13.82;9.05;;;;;;;9.82;88.79;100549.13;5074850;28;20070;-68
2022/12/22 14:19:21;;;;;;;17.17;10.07;;;;;;;9.76;89.87;100539.41;5074418;28;20024;-67
2022/12/22 14:21:56;;;;;;;18.17;11.30;;;;;;;9.75;90.21;100531.47;5074747;28;20390;-67
2022/12/22 14:24:26;;;;;;;18.17;11.15;;;;;;;9.71;90.66;100534.94;5074487;28;20028;-67
2022/12/22 14:26:53;;;;;;;12.68;9.73;;;;;;;9.68;90.65;100524.38;5056989;28;20028;-67
2022/12/22 14:29:21;;;;;;;16.85;9.52;;;;;;;9.64;91.15;100533.13;5074212;28;20039;-67
2022/12/22 14:31:58;;;;;;;15.88;8.85;;;;;;;9.52;92.01;100524.22;5074125;28;20017;-67
2022/12/22 14:34:29;;;;;;;13.82;8.57;;;;;;;9.47;92.98;100509.22;5074355;28;20111;-67
2022/12/22 14:36:54;;;;;;;13.13;8.52;;;;;;;9.50;93.30;100519.78;5074045;28;20360;-68
2022/12/22 14:39:23;;;;;;;13.65;8.13;;;;;;;9.46;93.12;100505.72;5074014;28;20031;-68
2022/12/22 14:41:52;;;;;;;13.32;7.72;;;;;;;9.53;93.16;100504.88;5073903;28;20016;-68
2022/12/22 14:44:30;;;;;;;12.68;8.20;;;;;;;9.52;93.29;100505.75;5073974;28;20021;-69
2022/12/22 14:47:16;;;;;;;13.60;7.68;;;;;;;9.53;93.69;100507.53;5056536;28;20028;-69
2022/12/22 14:49:57;;;;;;;12.35;8.15;;;;;;;9.45;94.20;100493.38;5073874;28;20453;-68
2022/12/22 14:52:49;;;;;;;13.13;8.00;;;;;;;9.43;94.29;100492.50;5055664;28;20428;-69
2022/12/22 14:55:28;;;;;;;15.98;8.13;;;;;;;9.36;95.11;100492.41;5073766;28;20029;-68
2022/12/22 14:58:04;;;;;;;12.95;7.75;;;;;;;9.30;95.66;100487.97;5073683;28;20444;-67
2022/12/22 15:00:46;;;;;;;12.45;7.97;;;;;;;9.10;96.29;100456.13;5073676;28;20035;-69
2022/12/22 15:03:34;;;;;;;11.88;7.10;;;;;;;9.29;96.62;100496.72;5073822;28;20020;-68
2022/12/22 15:06:21;;;;;;;13.35;7.75;;;;;;;9.27;97.44;100501.13;5054742;28;20068;-68
2022/12/22 15:08:46;;;;;;;14.25;7.53;;;;;;;9.22;98.04;100494.91;5073341;28;20043;-68
2022/12/22 15:11:17;;;;;;;14.98;7.72;;;;;;;9.20;98.26;100494.00;5073177;28;20029;-67
2022/12/22 15:13:48;;;;;;;11.48;8.57;;;;;;;9.16;98.59;100486.91;5073524;28;20079;-68